This is the latest recevied weather packets stored in our database for station/object OH2TI. If no packets are shown the sender has not sent any weather packets the latest 10 day(s).
| Time | Temp. | Humidity | Pressure | Rain* | Wind** | Luminosity | Snow |
|---|---|---|---|---|---|---|---|
| 1777835377 | 12.22° C | 71% | 1004.2 hPa | - | - | - | - |
| 1777834814 | 11.67° C | 73% | 1004.3 hPa | - | - | - | - |
| 1777834502 | 11.67° C | 74% | 1004.2 hPa | - | - | - | - |
| 1777834162 | 11.11° C | 75% | 1004.2 hPa | - | - | - | - |
| 1777833352 | 11.11° C | 76% | 1004.1 hPa | - | - | - | - |
| 1777832612 | 10.56° C | 77% | 1004.1 hPa | - | - | - | - |
| 1777832249 | 11.11° C | 76% | 1004.2 hPa | - | - | - | - |
| 1777831589 | 11.11° C | 76% | 1004.1 hPa | - | - | - | - |
| 1777830869 | 11.11° C | 74% | 1004 hPa | - | - | - | - |
| 1777830457 | 11.67° C | 73% | 1004 hPa | - | - | - | - |
| 1777829969 | 11.67° C | 72% | 1004 hPa | - | - | - | - |
| 1777829132 | 12.22° C | 70% | 1004 hPa | - | - | - | - |
| 1777828284 | 12.78° C | 66% | 1004 hPa | - | - | - | - |
| 1777827799 | 13.33° C | 66% | 1004.1 hPa | - | - | - | - |
| 1777827007 | 13.89° C | 62% | 1004.2 hPa | - | - | - | - |
| 1777826287 | 13.89° C | 61% | 1004.1 hPa | - | - | - | - |
| 1777825834 | 13.89° C | 61% | 1004.1 hPa | - | - | - | - |
| 1777825404 | 13.89° C | 61% | 1004.1 hPa | - | - | - | - |
| 1777825082 | 13.89° C | 61% | 1004.4 hPa | - | - | - | - |
| 1777824709 | 13.89° C | 61% | 1004.5 hPa | - | - | - | - |
| 1777824129 | 13.89° C | 61% | 1004.3 hPa | - | - | - | - |
| 1777823612 | 13.89° C | 61% | 1004.3 hPa | - | - | - | - |
| 1777822954 | 13.89° C | 61% | 1004.3 hPa | - | - | - | - |
| 1777822297 | 13.89° C | 61% | 1004.3 hPa | - | - | - | - |
| 1777821569 | 13.89° C | 63% | 1004.3 hPa | - | - | - | - |
* Rain since midnight (hover to see other rain measurements)
** Current wind speed in m/s (hover to see current wind gust speed)